Time;durP1;ratioP1;P1;durP2;ratioP2;P2;SDS_P1;SDS_P2;PMS_P1;PMS_P2;Temp;Humidity;BMP_temperature;BMP_pressure;BME280_temperature;BME280_humidity;BME280_pressure;Samples;Min_cycle;Max_cycle;Signal;HPM_P1;HPM_P2
2024/02/16 00:02:07;;;;;;;2.38;1.23;;;;;;;10.16;100.00;98423.28;15283298;19;20014;-73
2024/02/16 00:07:41;;;;;;;3.53;1.10;;;;;;;10.23;100.00;98411.88;15292559;19;20018;-73
2024/02/16 00:13:06;;;;;;;2.90;1.30;;;;;;;10.28;100.00;98413.06;15301768;19;20050;-73
2024/02/16 00:18:30;;;;;;;2.05;1.30;;;;;;;10.29;100.00;98403.16;15303872;19;20010;-73
2024/02/16 00:24:06;;;;;;;2.58;1.27;;;;;;;10.32;100.00;98402.81;15297206;19;20013;-74
2024/02/16 00:29:31;;;;;;;2.22;1.13;;;;;;;10.33;100.00;98409.91;15304095;19;20010;-73
2024/02/16 00:34:55;;;;;;;2.20;1.20;;;;;;;10.30;100.00;98400.31;15295190;19;20483;-73
2024/02/16 00:40:22;;;;;;;1.92;1.20;;;;;;;10.40;100.00;98394.84;15302475;19;20331;-72
2024/02/16 00:45:50;;;;;;;2.00;1.20;;;;;;;10.51;100.00;98403.63;15299030;19;20015;-73
2024/02/16 00:51:15;;;;;;;2.05;1.00;;;;;;;10.51;100.00;98403.63;15318135;19;20279;-73
2024/02/16 00:56:42;;;;;;;2.63;1.30;;;;;;;10.58;100.00;98396.59;15312909;19;20377;-72
2024/02/16 01:02:07;;;;;;;5.30;1.17;;;;;;;10.60;100.00;98394.56;15298717;19;20091;-73
2024/02/16 01:07:39;;;;;;;1.27;1.13;;;;;;;10.57;100.00;98381.41;15293647;19;20018;-74
2024/02/16 01:13:06;;;;;;;2.00;1.15;;;;;;;10.52;100.00;98368.44;15295360;19;20017;-74
2024/02/16 01:18:32;;;;;;;1.60;1.00;;;;;;;10.52;100.00;98375.69;15297638;19;21303;-75
2024/02/16 01:23:59;;;;;;;2.05;1.10;;;;;;;10.51;100.00;98368.63;15295514;19;20015;-74
2024/02/16 01:29:26;;;;;;;2.38;1.02;;;;;;;10.50;100.00;98378.53;15298775;19;20471;-75
2024/02/16 01:34:51;;;;;;;1.52;1.10;;;;;;;10.50;100.00;98356.16;15299189;19;20022;-75
2024/02/16 01:40:18;;;;;;;1.80;0.90;;;;;;;10.53;100.00;98361.19;15292750;19;20010;-74
2024/02/16 01:45:45;;;;;;;2.85;1.10;;;;;;;10.52;100.00;98364.91;15294195;19;20017;-74
2024/02/16 01:51:11;;;;;;;1.38;0.90;;;;;;;10.56;100.00;98371.66;15297703;19;20551;-74
2024/02/16 01:56:36;;;;;;;2.72;1.08;;;;;;;10.58;100.00;98361.56;15297464;19;20013;-75
2024/02/16 02:02:03;;;;;;;2.15;1.00;;;;;;;10.62;100.00;98341.38;15295520;19;20021;-75
2024/02/16 02:07:35;;;;;;;1.88;1.10;;;;;;;10.62;100.00;98349.47;15292166;19;20026;-74
2024/02/16 02:13:00;;;;;;;1.73;0.90;;;;;;;10.60;100.00;98344.22;15293174;19;20473;-73
2024/02/16 02:18:27;;;;;;;2.28;0.90;;;;;;;10.64;100.00;98347.47;15295756;19;20014;-73
2024/02/16 02:23:54;;;;;;;2.22;1.02;;;;;;;10.61;100.00;98321.66;15291893;19;20037;-72
2024/02/16 02:29:19;;;;;;;1.30;0.85;;;;;;;10.56;100.00;98318.63;15293874;19;20021;-73
2024/02/16 02:34:46;;;;;;;2.90;0.80;;;;;;;10.54;100.00;98319.78;15289525;19;20398;-75
2024/02/16 02:40:14;;;;;;;1.35;0.80;;;;;;;10.55;100.00;98310.69;15291396;19;20015;-73
2024/02/16 02:45:39;;;;;;;1.27;0.70;;;;;;;10.57;100.00;98301.47;15291870;19;20474;-74
2024/02/16 02:51:03;;;;;;;2.28;0.80;;;;;;;10.63;100.00;98297.28;15294843;19;20014;-75
2024/02/16 02:56:30;;;;;;;1.90;0.80;;;;;;;10.68;100.00;98289.53;15294167;19;20018;-74
2024/02/16 03:01:55;;;;;;;3.17;0.82;;;;;;;10.72;100.00;98282.81;15290837;19;20022;-74
2024/02/16 03:07:26;;;;;;;2.65;0.70;;;;;;;10.71;100.00;98297.28;15290495;19;20037;-74
2024/02/16 03:12:55;;;;;;;1.90;0.83;;;;;;;10.69;100.00;98291.22;15287556;19;20021;-74
2024/02/16 03:18:19;;;;;;;1.98;0.85;;;;;;;10.69;100.00;98290.38;15292046;19;20018;-72
2024/02/16 03:23:44;;;;;;;1.48;0.70;;;;;;;10.67;100.00;98282.44;15290485;19;20033;-73
2024/02/16 03:29:11;;;;;;;2.05;0.82;;;;;;;10.71;100.00;98282.94;15291875;19;20366;-74
2024/02/16 03:34:36;;;;;;;1.38;0.70;;;;;;;10.70;100.00;98276.72;15288138;19;20373;-73
2024/02/16 03:40:00;;;;;;;1.27;0.88;;;;;;;10.69;100.00;98266.97;15291434;19;20031;-74
2024/02/16 03:45:28;;;;;;;3.13;0.90;;;;;;;10.69;100.00;98277.75;15293030;19;20081;-74
2024/02/16 03:50:53;;;;;;;1.55;0.65;;;;;;;10.71;100.00;98283.81;15305686;19;20014;-74
2024/02/16 03:56:21;;;;;;;1.02;0.57;;;;;;;10.69;100.00;98285.81;15305658;19;20015;-75
2024/02/16 04:01:48;;;;;;;1.30;0.70;;;;;;;10.71;100.00;98282.94;15302651;19;20082;-74
2024/02/16 04:07:13;;;;;;;1.33;1.00;;;;;;;10.66;100.00;98278.06;15300769;19;20548;-75
2024/02/16 04:12:37;;;;;;;1.63;0.80;;;;;;;10.65;100.00;98281.75;15302298;19;20017;-74
2024/02/16 04:18:05;;;;;;;2.97;0.77;;;;;;;10.65;100.00;98279.06;15299737;19;20090;-75
2024/02/16 04:23:29;;;;;;;1.77;0.80;;;;;;;10.70;100.00;98295.59;15314362;19;20014;-74
2024/02/16 04:28:54;;;;;;;1.58;0.68;;;;;;;10.71;100.00;98294.59;15332157;19;20788;-73
2024/02/16 04:34:21;;;;;;;0.90;0.70;;;;;;;10.68;100.00;98289.53;15300057;19;20006;-75
2024/02/16 04:39:47;;;;;;;1.27;0.60;;;;;;;10.62;100.00;98282.13;15303197;19;20357;-76
2024/02/16 04:45:12;;;;;;;2.63;0.80;;;;;;;10.61;100.00;98277.72;15299625;19;20011;-75
2024/02/16 04:50:40;;;;;;;0.98;0.65;;;;;;;10.62;100.00;98257.88;15303645;19;20014;-80
2024/02/16 04:56:05;;;;;;;0.90;0.63;;;;;;;10.56;100.00;98274.69;15307294;19;20086;-79
2024/02/16 05:01:31;;;;;;;1.42;0.70;;;;;;;10.53;100.00;98270.47;15314862;19;20019;-78
2024/02/16 05:12:20;;;;;;;1.52;0.90;;;;;;;10.40;100.00;98268.25;15338692;19;20014;-79
2024/02/16 05:17:45;;;;;;;1.42;0.68;;;;;;;10.33;100.00;98264.50;15310418;19;20015;-81
2024/02/16 05:23:13;;;;;;;0.80;0.60;;;;;;;10.31;100.00;98271.88;15314115;19;20078;-80
2024/02/16 05:28:38;;;;;;;1.13;0.70;;;;;;;10.33;100.00;98242.94;15330702;19;20010;-82
2024/02/16 05:34:04;;;;;;;0.90;0.57;;;;;;;10.30;100.00;98259.41;15325684;19;20024;-83
2024/02/16 05:39:31;;;;;;;1.00;0.60;;;;;;;10.33;100.00;98267.19;15324268;19;20023;-81
2024/02/16 05:44:56;;;;;;;2.95;0.70;;;;;;;10.35;100.00;98267.88;15318516;19;20010;-83
2024/02/16 05:50:22;;;;;;;1.85;0.60;;;;;;;10.37;100.00;98263.16;15316307;19;20022;-80
2024/02/16 05:55:49;;;;;;;0.88;0.70;;;;;;;10.39;100.00;98266.56;15302808;19;20035;-81
2024/02/16 06:01:14;;;;;;;2.40;0.70;;;;;;;10.41;100.00;98272.63;15307481;19;20006;-81
2024/02/16 06:06:39;;;;;;;1.83;0.60;;;;;;;10.41;100.00;98267.22;15301783;19;20020;-84
2024/02/16 06:12:09;;;;;;;1.30;0.57;;;;;;;10.42;100.00;98252.75;15301855;19;20089;-83
2024/02/16 06:17:34;;;;;;;0.50;0.50;;;;;;;10.40;100.00;98238.63;15298550;19;20805;-82
2024/02/16 06:22:58;;;;;;;0.80;0.70;;;;;;;10.39;100.00;98236.94;15300437;19;20014;-83
2024/02/16 06:28:27;;;;;;;1.48;0.73;;;;;;;10.39;100.00;98231.56;15302219;19;20042;-82
2024/02/16 06:33:51;;;;;;;0.95;0.65;;;;;;;10.40;100.00;98244.03;15302701;19;20010;-79
2024/02/16 06:39:19;;;;;;;0.52;0.50;;;;;;;10.43;100.00;98254.44;15305142;19;20018;-83
2024/02/16 06:44:47;;;;;;;0.80;0.80;;;;;;;10.43;100.00;98259.84;15299693;19;20014;-84
2024/02/16 06:50:12;;;;;;;0.60;0.60;;;;;;;10.45;100.00;98255.13;15301550;19;20015;-83
2024/02/16 06:55:37;;;;;;;2.25;0.85;;;;;;;10.48;100.00;98245.88;15299975;19;20022;-82
2024/02/16 07:01:05;;;;;;;1.15;0.77;;;;;;;10.59;100.00;98234.78;15297756;19;20021;-83
2024/02/16 07:06:36;;;;;;;1.70;0.90;;;;;;;10.69;100.00;98245.41;15294184;19;20039;-82
2024/02/16 07:12:02;;;;;;;1.73;0.80;;;;;;;10.72;100.00;98245.09;15290609;19;20022;-77
2024/02/16 07:17:29;;;;;;;1.17;0.80;;;;;;;10.75;100.00;98244.75;15302654;19;20018;-81
2024/02/16 07:22:54;;;;;;;0.90;0.68;;;;;;;10.83;100.00;98240.38;15303318;19;20029;-80
2024/02/16 07:28:19;;;;;;;1.15;0.75;;;;;;;10.90;100.00;98249.47;15314815;19;20019;-79
2024/02/16 07:33:47;;;;;;;1.30;0.80;;;;;;;10.90;100.00;98228.75;15306309;19;20360;-81
2024/02/16 07:39:13;;;;;;;1.05;0.63;;;;;;;10.94;100.00;98240.03;15314108;19;20537;-80
2024/02/16 07:44:38;;;;;;;0.95;0.70;;;;;;;11.01;100.00;98235.66;15311924;19;20086;-84
2024/02/16 07:50:09;;;;;;;1.00;0.70;;;;;;;11.02;100.00;98237.34;15314333;19;20010;-79
2024/02/16 07:55:47;;;;;;;1.50;0.90;;;;;;;10.99;100.00;98226.91;15335048;19;20093;-83
2024/02/16 08:01:15;;;;;;;2.55;0.80;;;;;;;11.02;100.00;98228.41;15344345;19;20018;-83
2024/02/16 08:06:43;;;;;;;1.80;0.85;;;;;;;11.07;100.00;98244.91;15303050;19;20021;-81
2024/02/16 08:12:08;;;;;;;1.70;0.80;;;;;;;11.15;100.00;98252.16;15310516;19;20078;-82
2024/02/16 08:17:33;;;;;;;1.00;0.70;;;;;;;11.23;100.00;98244.09;15310118;19;20010;-80
2024/02/16 08:23:00;;;;;;;0.95;0.70;;;;;;;11.32;100.00;98259.25;15305318;19;20007;-81
2024/02/16 08:28:25;;;;;;;0.85;0.70;;;;;;;11.40;100.00;98256.53;15309404;19;20502;-83
2024/02/16 08:33:49;;;;;;;1.25;0.65;;;;;;;11.47;100.00;98245.03;15311553;19;20018;-84
2024/02/16 08:39:19;;;;;;;1.67;0.80;;;;;;;11.53;100.00;98252.47;15310443;19;20018;-84
2024/02/16 08:44:44;;;;;;;2.63;0.85;;;;;;;11.59;100.00;98253.63;15305494;19;20035;-86
2024/02/16 08:50:11;;;;;;;1.38;0.80;;;;;;;11.65;100.00;98242.13;15316530;19;20011;-86
2024/02/16 08:55:38;;;;;;;3.72;0.90;;;;;;;11.78;100.00;98252.41;15311585;19;20026;-84
2024/02/16 09:01:03;;;;;;;1.63;0.82;;;;;;;11.87;100.00;98246.81;15304337;19;20476;-85
2024/02/16 09:06:27;;;;;;;1.08;0.80;;;;;;;11.94;100.00;98251.50;14795240;19;9999659;-84
2024/02/16 09:11:56;;;;;;;1.00;0.70;;;;;;;12.01;100.00;98244.41;15322452;19;20014;-86
2024/02/16 09:17:21;;;;;;;0.80;0.80;;;;;;;12.02;100.00;98244.25;15313319;19;20011;-85
2024/02/16 09:22:46;;;;;;;1.17;0.70;;;;;;;12.10;100.00;98223.63;15317093;19;20018;-85
2024/02/16 09:28:13;;;;;;;1.48;0.80;;;;;;;12.25;100.00;98221.88;15355450;19;20011;-86
2024/02/16 09:33:48;;;;;;;2.60;0.77;;;;;;;12.42;100.00;98233.41;15326461;19;20126;-83
2024/02/16 09:39:15;;;;;;;1.25;0.80;;;;;;;12.57;100.00;98214.56;15313676;19;20006;-84
2024/02/16 09:44:45;;;;;;;1.13;0.70;;;;;;;12.66;100.00;98215.38;15302215;19;20025;-82
2024/02/16 09:50:10;;;;;;;0.82;0.70;;;;;;;12.74;100.00;98209.06;15314187;19;20014;-78
2024/02/16 09:55:35;;;;;;;1.60;0.60;;;;;;;12.89;100.00;98207.22;15307242;19;20439;-81
2024/02/16 10:01:04;;;;;;;0.63;0.57;;;;;;;13.00;100.00;98205.97;15304908;19;20540;-82
2024/02/16 10:06:29;;;;;;;0.77;0.60;;;;;;;13.12;100.00;98214.47;15298424;19;20018;-80
2024/02/16 10:11:54;;;;;;;1.10;0.85;;;;;;;13.26;100.00;98229.91;15310199;19;20026;-79
2024/02/16 10:17:23;;;;;;;0.73;0.73;;;;;;;13.38;100.00;98216.78;15314178;19;20007;-84
2024/02/16 10:22:47;;;;;;;2.30;0.60;;;;;;;13.41;100.00;98223.72;15305835;19;20013;-80
2024/02/16 10:28:14;;;;;;;1.95;0.70;;;;;;;13.46;100.00;98228.56;15314450;19;20393;-79
2024/02/16 10:33:43;;;;;;;1.33;0.77;;;;;;;13.51;100.00;98237.81;15305105;19;20089;-78
2024/02/16 10:39:11;;;;;;;2.78;0.80;;;;;;;13.56;100.00;98246.25;15308342;19;20028;-78
2024/02/16 10:44:36;;;;;;;1.50;0.80;;;;;;;13.60;100.00;98245.84;15302223;19;20335;-80
2024/02/16 10:50:04;;;;;;;1.33;0.70;;;;;;;13.65;100.00;98248.84;15308160;19;20021;-79
2024/02/16 10:55:28;;;;;;;1.90;0.80;;;;;;;13.69;100.00;98244.75;15305271;19;20010;-79
2024/02/16 11:00:54;;;;;;;1.17;0.82;;;;;;;13.81;100.00;98245.97;15313810;19;20018;-81
2024/02/16 11:06:29;;;;;;;1.02;0.70;;;;;;;13.92;100.00;98246.53;15293475;19;20011;-80
2024/02/16 11:11:57;;;;;;;1.92;0.77;;;;;;;13.97;100.00;98241.38;15301237;19;20627;-80
2024/02/16 11:17:23;;;;;;;2.78;0.98;;;;;;;14.02;100.00;98244.38;15296554;19;20098;-80
2024/02/16 11:22:51;;;;;;;1.30;0.70;;;;;;;14.05;100.00;98254.84;15298222;19;20789;-80
2024/02/16 11:28:16;;;;;;;1.80;1.00;;;;;;;14.10;100.00;98243.44;15303409;19;20019;-80
2024/02/16 11:33:46;;;;;;;2.85;0.90;;;;;;;14.18;100.00;98235.19;15350421;19;20060;-80
2024/02/16 11:39:22;;;;;;;3.88;0.80;;;;;;;14.24;100.00;98230.91;15303253;19;20015;-79
2024/02/16 11:44:54;;;;;;;1.23;0.85;;;;;;;14.29;100.00;98233.84;15297779;19;20055;-80
2024/02/16 11:50:20;;;;;;;2.00;1.00;;;;;;;14.33;100.00;98232.47;15292429;19;20034;-79
2024/02/16 11:55:52;;;;;;;1.42;0.80;;;;;;;14.41;100.00;98215.25;15293113;19;20096;-80
2024/02/16 12:01:21;;;;;;;1.70;0.90;;;;;;;14.45;100.00;98222.81;15299867;19;20014;-80
2024/02/16 12:06:53;;;;;;;3.30;0.80;;;;;;;14.49;100.00;98215.13;15310964;19;20073;-81
2024/02/16 12:12:25;;;;;;;1.40;0.80;;;;;;;14.51;100.00;98209.53;15309534;19;20018;-82
2024/02/16 12:17:50;;;;;;;0.93;0.70;;;;;;;14.55;100.00;98210.81;15313131;19;20014;-82
2024/02/16 12:23:15;;;;;;;2.72;1.10;;;;;;;14.59;100.00;98217.53;15308317;19;20346;-82
2024/02/16 12:28:42;;;;;;;1.73;1.20;;;;;;;14.58;100.00;98218.56;15311837;19;20011;-86
2024/02/16 12:34:07;;;;;;;1.42;1.10;;;;;;;14.60;100.00;98217.31;15316057;19;20041;-82
2024/02/16 12:39:31;;;;;;;1.33;0.90;;;;;;;14.67;100.00;98225.56;15317929;19;20020;-83
2024/02/16 12:44:59;;;;;;;2.22;0.90;;;;;;;14.78;100.00;98219.63;15324879;19;20018;-80
2024/02/16 12:50:23;;;;;;;2.78;1.30;;;;;;;14.95;100.00;98222.09;15359440;19;20138;-81
2024/02/16 12:55:48;;;;;;;3.33;0.88;;;;;;;15.10;100.00;98206.59;15325390;19;20376;-81
2024/02/16 13:01:17;;;;;;;1.40;0.90;;;;;;;15.17;100.00;98214.75;15316950;19;20018;-80
2024/02/16 13:06:45;;;;;;;1.13;0.80;;;;;;;15.14;100.00;98214.31;15310673;19;20038;-81
2024/02/16 13:12:11;;;;;;;1.27;1.00;;;;;;;15.12;100.00;98216.38;15309073;19;20496;-82
2024/02/16 13:17:39;;;;;;;1.67;1.10;;;;;;;15.10;100.00;98205.72;15306397;19;20022;-81
2024/02/16 13:23:06;;;;;;;1.05;0.90;;;;;;;15.10;100.00;98203.03;15308165;19;20046;-81
2024/02/16 13:28:31;;;;;;;1.13;0.93;;;;;;;15.14;100.00;98188.03;15296780;19;20055;-80
2024/02/16 13:33:58;;;;;;;2.13;1.00;;;;;;;15.21;100.00;98179.94;15294445;19;20553;-82
2024/02/16 13:45:14;;;;;;;1.38;0.95;;;;;;;15.51;100.00;98179.72;15356840;19;19983;-81
2024/02/16 13:50:42;;;;;;;3.47;0.90;;;;;;;15.69;100.00;98185.50;15309099;19;20086;-82
2024/02/16 13:56:08;;;;;;;2.67;1.02;;;;;;;16.04;100.00;98186.53;15295106;19;20019;-82
2024/02/16 14:01:32;;;;;;;1.58;1.00;;;;;;;16.29;100.00;98184.91;15305752;19;20025;-81
2024/02/16 14:07:09;;;;;;;1.40;0.80;;;;;;;16.40;100.00;98179.97;15294184;19;20021;-81
2024/02/16 14:12:34;;;;;;;2.03;1.00;;;;;;;16.57;100.00;98192.13;15304695;19;20019;-81
2024/02/16 14:17:58;;;;;;;1.25;0.90;;;;;;;16.48;100.00;98202.34;15296442;19;20040;-81
2024/02/16 14:23:37;;;;;;;2.75;1.00;;;;;;;16.38;100.00;98209.22;15297352;19;20037;-81
2024/02/16 14:29:02;;;;;;;1.08;0.70;;;;;;;16.54;100.00;98208.03;15294540;19;20359;-81
2024/02/16 14:34:27;;;;;;;0.80;0.73;;;;;;;16.42;100.00;98205.91;15294109;19;20006;-82
2024/02/16 14:39:57;;;;;;;2.78;0.82;;;;;;;16.25;100.00;98213.56;15297302;19;20077;-81
2024/02/16 14:45:24;;;;;;;1.45;0.93;;;;;;;16.10;100.00;98223.75;15301791;19;20018;-80
2024/02/16 14:50:58;;;;;;;2.05;1.10;;;;;;;15.98;100.00;98213.44;15286314;19;20027;-60
2024/02/16 14:56:25;;;;;;;1.63;1.08;;;;;;;15.93;100.00;98223.25;15288248;19;20043;-60
2024/02/16 15:01:51;;;;;;;1.55;0.82;;;;;;;15.83;100.00;98213.56;15283784;19;20091;-62
2024/02/16 15:07:16;;;;;;;1.23;0.90;;;;;;;15.72;100.00;98228.53;15282676;19;20089;-60
2024/02/16 15:12:43;;;;;;;0.80;0.75;;;;;;;15.64;100.00;98217.81;15283648;19;20078;-61
2024/02/16 15:18:09;;;;;;;1.23;0.80;;;;;;;15.53;100.00;98221.09;15291618;19;20018;-61
2024/02/16 15:23:33;;;;;;;2.25;0.95;;;;;;;15.40;100.00;98219.97;15288108;19;20022;-61
2024/02/16 15:29:01;;;;;;;2.10;1.00;;;;;;;15.27;100.00;98227.16;15287208;19;20104;-63
2024/02/16 15:34:26;;;;;;;2.10;0.80;;;;;;;15.11;100.00;98234.53;15276765;19;20384;-60
2024/02/16 15:39:51;;;;;;;2.25;1.35;;;;;;;14.96;100.00;98256.31;15302580;19;20046;-63
2024/02/16 15:45:19;;;;;;;1.33;1.10;;;;;;;14.83;100.00;98250.75;15299944;19;20085;-63
2024/02/16 15:50:44;;;;;;;2.97;1.13;;;;;;;14.71;100.00;98256.69;15296700;19;20018;-62
2024/02/16 15:56:14;;;;;;;3.97;1.52;;;;;;;14.62;100.00;98261.34;15298890;19;20046;-62
2024/02/16 16:01:41;;;;;;;2.67;1.88;;;;;;;14.53;100.00;98275.22;15296453;19;20028;-61
2024/02/16 16:07:06;;;;;;;3.22;2.17;;;;;;;14.43;100.00;98281.78;15295379;19;20022;-63
2024/02/16 16:12:30;;;;;;;3.78;2.63;;;;;;;14.33;100.00;98294.78;15294385;19;20367;-62
2024/02/16 16:17:58;;;;;;;2.78;1.60;;;;;;;14.26;100.00;98302.00;15303173;19;20033;-63
2024/02/16 16:23:22;;;;;;;2.85;1.30;;;;;;;14.16;100.00;98305.84;15300142;19;20074;-60
2024/02/16 16:28:46;;;;;;;2.95;1.40;;;;;;;14.06;100.00;98309.84;15298927;19;20022;-62
2024/02/16 16:34:14;;;;;;;1.63;1.20;;;;;;;13.92;100.00;98309.66;15291744;19;20011;-61
2024/02/16 16:39:39;;;;;;;2.72;1.30;;;;;;;13.79;100.00;98315.72;15296765;19;20470;-61
2024/02/16 16:45:03;;;;;;;2.85;1.58;;;;;;;13.67;100.00;98326.13;15296388;19;20018;-62
2024/02/16 16:50:39;;;;;;;5.00;2.10;;;;;;;13.56;100.00;98338.28;15299718;19;20022;-62
2024/02/16 16:56:05;;;;;;;2.22;1.73;;;;;;;13.47;100.00;98344.75;15292093;19;20369;-61
2024/02/16 17:01:29;;;;;;;3.70;1.75;;;;;;;13.38;100.00;98362.06;15287614;19;20029;-60
2024/02/16 17:06:56;;;;;;;2.38;1.70;;;;;;;13.29;100.00;98358.56;15288980;19;20090;-60
2024/02/16 17:12:21;;;;;;;2.47;1.50;;;;;;;13.22;100.00;98369.28;15288509;19;20018;-61
2024/02/16 17:17:50;;;;;;;1.67;1.35;;;;;;;13.14;100.00;98382.84;15294801;19;20025;-60
2024/02/16 17:23:18;;;;;;;2.85;1.40;;;;;;;13.07;100.00;98396.22;15293787;19;20020;-60
2024/02/16 17:28:42;;;;;;;2.63;1.40;;;;;;;13.02;100.00;98411.31;15292657;19;20534;-60
2024/02/16 17:34:08;;;;;;;3.20;1.60;;;;;;;12.94;100.00;98415.75;15294090;19;20085;-61
2024/02/16 17:39:35;;;;;;;3.05;1.60;;;;;;;12.87;100.00;98414.78;15298505;19;20010;-62
2024/02/16 17:45:06;;;;;;;2.58;1.50;;;;;;;12.92;100.00;98420.50;15289873;19;20021;-61
2024/02/16 17:50:31;;;;;;;3.33;1.30;;;;;;;12.91;100.00;98431.50;15293929;19;20676;-60
2024/02/16 17:55:59;;;;;;;1.70;1.20;;;;;;;12.86;100.00;98444.69;15293439;19;20035;-62
2024/02/16 18:01:23;;;;;;;1.80;1.48;;;;;;;12.88;100.00;98448.88;15296338;19;20031;-62
2024/02/16 18:06:48;;;;;;;4.00;2.20;;;;;;;12.88;100.00;98448.06;15296659;19;20018;-60
2024/02/16 18:12:17;;;;;;;3.13;1.90;;;;;;;12.90;100.00;98451.44;15294517;19;20070;-61
2024/02/16 18:17:42;;;;;;;2.58;1.63;;;;;;;12.89;100.00;98450.56;15286617;19;20467;-60
2024/02/16 18:23:06;;;;;;;3.60;1.63;;;;;;;12.89;100.00;98457.88;15292340;19;20031;-60
2024/02/16 18:28:34;;;;;;;3.13;1.50;;;;;;;12.89;100.00;98455.16;15293070;19;20025;-59
2024/02/16 18:34:04;;;;;;;5.35;1.80;;;;;;;12.87;100.00;98466.16;15291678;19;20050;-60
2024/02/16 18:39:29;;;;;;;3.47;1.38;;;;;;;12.86;100.00;98469.88;15293625;19;20090;-59
2024/02/16 18:44:57;;;;;;;2.75;1.38;;;;;;;12.81;100.00;98468.72;15290647;19;20018;-62
2024/02/16 18:50:21;;;;;;;4.38;1.52;;;;;;;12.75;100.00;98472.97;15284534;19;20018;-62
2024/02/16 18:55:46;;;;;;;5.22;1.90;;;;;;;12.73;100.00;98480.41;15290029;19;20021;-61
2024/02/16 19:01:13;;;;;;;8.45;1.50;;;;;;;12.70;100.00;98484.25;15290967;19;20460;-62
2024/02/16 19:06:38;;;;;;;2.47;1.70;;;;;;;12.71;100.00;98504.03;15285873;19;20015;-61
2024/02/16 19:12:03;;;;;;;5.95;1.63;;;;;;;12.69;100.00;98504.22;15281668;19;20011;-61
2024/02/16 19:17:30;;;;;;;2.78;1.60;;;;;;;12.70;100.00;98503.19;15285480;19;20025;-61
2024/02/16 19:22:55;;;;;;;2.67;1.63;;;;;;;12.69;100.00;98511.47;15285325;19;20089;-61
2024/02/16 19:28:19;;;;;;;4.20;1.70;;;;;;;12.68;100.00;98526.00;15286351;19;20026;-62
2024/02/16 19:33:47;;;;;;;2.42;1.75;;;;;;;12.65;100.00;98535.31;15184886;19;2004169;-62
2024/02/16 19:39:15;;;;;;;2.88;1.63;;;;;;;12.64;100.00;98545.25;15290636;19;20081;-62
2024/02/16 19:44:40;;;;;;;6.60;2.10;;;;;;;12.62;100.00;98547.31;15283813;19;20081;-60
2024/02/16 19:50:09;;;;;;;3.80;2.38;;;;;;;12.61;100.00;98552.88;15286143;19;20081;-59
2024/02/16 19:55:35;;;;;;;3.67;2.10;;;;;;;12.55;100.00;98564.38;15284272;19;20019;-59
2024/02/16 20:01:03;;;;;;;2.38;1.67;;;;;;;12.46;100.00;98571.66;15024537;19;5001417;-60
2024/02/16 20:06:31;;;;;;;5.38;2.00;;;;;;;12.35;100.00;98582.81;15280638;19;20015;-60
2024/02/16 20:11:55;;;;;;;3.85;1.92;;;;;;;12.23;100.00;98591.25;15282884;19;20028;-60
2024/02/16 20:17:20;;;;;;;4.95;1.70;;;;;;;12.10;100.00;98593.59;15287343;19;20031;-60
2024/02/16 20:22:47;;;;;;;3.20;1.83;;;;;;;11.97;100.00;98611.09;15284216;19;20034;-60
2024/02/16 20:28:13;;;;;;;3.28;1.70;;;;;;;11.84;100.00;98630.47;15290761;19;20014;-52
2024/02/16 20:33:38;;;;;;;5.60;1.90;;;;;;;11.69;100.00;98654.56;15279391;19;20031;-53
2024/02/16 20:39:05;;;;;;;3.42;1.63;;;;;;;11.64;100.00;98694.66;15298040;19;20028;-52
2024/02/16 20:44:29;;;;;;;3.33;2.30;;;;;;;11.63;100.00;98708.31;15293015;19;20496;-54
2024/02/16 20:49:54;;;;;;;4.07;2.22;;;;;;;11.60;100.00;98732.94;15296961;19;20033;-54
2024/02/16 20:55:22;;;;;;;5.13;2.22;;;;;;;11.56;100.00;98757.53;15294635;19;20018;-53
2024/02/16 21:00:47;;;;;;;4.00;2.30;;;;;;;11.53;100.00;98773.19;15298548;19;20641;-54
2024/02/16 21:06:11;;;;;;;5.47;2.30;;;;;;;11.46;100.00;98786.47;15295065;19;20098;-53
2024/02/16 21:11:39;;;;;;;4.68;2.38;;;;;;;11.43;100.00;98804.84;15288731;19;20022;-53
2024/02/16 21:17:03;;;;;;;5.07;2.67;;;;;;;11.43;100.00;98816.44;15294199;19;20011;-55
2024/02/16 21:22:28;;;;;;;3.67;2.25;;;;;;;11.43;100.00;98838.03;15296798;19;20098;-56
2024/02/16 21:27:57;;;;;;;5.68;2.35;;;;;;;11.42;100.00;98841.72;15288668;19;20016;-56
2024/02/16 21:33:22;;;;;;;3.63;2.50;;;;;;;11.45;100.00;98857.63;15289982;19;20033;-55
2024/02/16 21:38:46;;;;;;;5.20;2.80;;;;;;;11.44;100.00;98873.97;15282838;19;20018;-52
2024/02/16 21:44:15;;;;;;;4.53;2.38;;;;;;;11.45;100.00;98883.75;15282728;19;20014;-56
2024/02/16 21:49:40;;;;;;;4.65;2.40;;;;;;;11.43;100.00;98886.59;15289229;19;20014;-54
2024/02/16 21:55:04;;;;;;;4.57;2.45;;;;;;;11.40;100.00;98898.56;15295318;19;20017;-57
2024/02/16 22:00:31;;;;;;;4.20;2.83;;;;;;;11.40;100.00;98912.03;15290357;19;20025;-52
2024/02/16 22:05:57;;;;;;;4.50;2.50;;;;;;;11.41;100.00;98921.84;15291317;19;20097;-57
2024/02/16 22:11:24;;;;;;;5.20;2.35;;;;;;;11.44;100.00;98923.38;15285981;19;20098;-52
2024/02/16 22:16:51;;;;;;;4.55;2.45;;;;;;;11.46;100.00;98939.44;15294802;19;20025;-52
2024/02/16 22:22:15;;;;;;;4.38;2.75;;;;;;;11.48;100.00;98948.19;15292804;19;20024;-53
2024/02/16 22:27:41;;;;;;;3.35;2.50;;;;;;;11.51;100.00;98953.28;15291993;19;20089;-54
2024/02/16 22:33:16;;;;;;;3.90;2.60;;;;;;;11.47;100.00;98952.75;15288944;19;20035;-55
2024/02/16 22:38:42;;;;;;;4.43;2.65;;;;;;;11.48;100.00;98958.97;15292546;19;20094;-53
2024/02/16 22:44:06;;;;;;;4.80;2.65;;;;;;;11.48;100.00;98967.06;15294006;19;20665;-53
2024/02/16 22:49:33;;;;;;;2.95;2.40;;;;;;;11.46;100.00;98972.63;15290482;19;20014;-55
2024/02/16 22:54:58;;;;;;;6.80;2.90;;;;;;;11.44;100.00;98980.03;15294984;19;20014;-54
2024/02/16 23:00:24;;;;;;;6.00;2.97;;;;;;;11.41;100.00;98983.91;15291361;19;20086;-54
2024/02/16 23:05:56;;;;;;;5.97;3.38;;;;;;;11.39;100.00;98999.38;15288480;19;20456;-55
2024/02/16 23:11:21;;;;;;;4.75;3.15;;;;;;;11.43;100.00;99015.28;15287391;19;20019;-53
2024/02/16 23:16:46;;;;;;;6.60;3.10;;;;;;;11.41;100.00;99012.69;15292337;19;20678;-53
2024/02/16 23:22:13;;;;;;;5.43;3.28;;;;;;;11.41;100.00;99036.97;15285078;19;20014;-55
2024/02/16 23:27:38;;;;;;;5.18;3.35;;;;;;;11.39;100.00;99047.09;15286554;19;20018;-55
2024/02/16 23:33:10;;;;;;;6.72;3.17;;;;;;;11.34;100.00;99065.56;15280678;19;20010;-55
2024/02/16 23:38:31;;;;;;;4.60;2.80;;;;;;;11.27;100.00;99065.31;15283859;19;20015;-56
2024/02/16 23:43:56;;;;;;;4.28;3.38;;;;;;;11.20;100.00;99069.63;15285312;19;20465;-56
2024/02/16 23:49:20;;;;;;;6.47;4.60;;;;;;;11.13;100.00;99077.47;15289219;19;20800;-55
2024/02/16 23:54:47;;;;;;;5.75;4.60;;;;;;;11.09;100.00;99085.00;15286690;19;20041;-55
